Thursday, January 29, 2015
06:19 UTC
  |  Log In   |  Register Free
Airport Search:

Olympia Regional Airport
(KOLM)

Airport information sponsored by:
Glacier Jet Center at Olympia Regional (KOLM), Olympia, WA
FAA data valid effective January 08, 2015 - March 05, 2015 (unless otherwise noted).

 
 
 
 
 
 
 
 
 
 
 
 
 
 

Current Aviation Weather for Olympia Regional Airport (KOLM)

The most recent METAR observation for KOLM was updated at: 0611
METAR Summary (Translated METAR)
KOLM
290606Z AUTO 00000KT 3SM BR BKN002 02/01 A3036 RMK AO2 T00170011
KGRF
290558Z 00000KT 1SM R15/2600FT BR CLR 03/03 A3035 RMK AO2A VIS S 1/2 SLP283 53000 PWINO $
(14.7 nm NE from KOLM)
KCLS
290555Z AUTO 05004KT 10SM SCT013 07/07 A3035 RMK AO2
(17.9 nm SW from KOLM)
TAF Summary (Translated TAF)
KOLM
290424Z 2904/2924 00000KT P6SM BCFG SKC TEMPO 2904/2908 1/2SM BCFG BKN001 FM290800 00000KT P6SM BCFG BKN060 TEMPO 2908/2912 1/2SM BCFG BKN001 BKN060 FM291200 00000KT P6SM BCFG FEW001 BKN050 TEMPO 2912/2915 1SM BR BKN050 FM291600 03003KT P6SM BKN050 FM292000 04003KT P6SM SCT050 SCT150
KGRF
(14.7 nm NE from KOLM)
2905/3011 00000KT 4800 BR SCT050 BKN100 QNH3035INS BECMG 2907/2908 15003KT 3200 BR SCT002 QNH3035INS BECMG 2908/2909 00000KT 0800 FG VV001 QNH3034INS BECMG 2916/2917 VRB03KT 3200 BR SCT005 QNH3034INS BECMG 2917/2918 VRB03KT 9999 NSW SKC QNH3031INS BECMG 3005/3006 00000KT 4800 BR SCT010 QNH3030INS TX10/2922Z TN03/2914Z
  Airport Weather Conditions for KOLM

 Current Weather at OLM
36° F
Fog
East winds at 3.5 mph
OLM NOAA Radar

Pressure: 30.36 in
Humidity: 97%
Wind: East at 3.5 MPH (3 KT)
Dew Point: 35.1°F
Visibility: 0.25 mi


Airport Weather Forecast for KOLM

Translated METAR and TAF for KOLM
Translated METAR for KOLM (0619 UTC 29 January 2015)
found at http://aviationweather.gov/adds/metars/
 
METAR text: KOLM 290613Z AUTO 00000KT 2SM BR BKN002 02/01 A3036 RMK AO2 T00170011
Conditions at: KOLM (OLYMPIA , WA, US) observed 0613 UTC 29 January 2015
Temperature: 1.7°C (35°F)
Dewpoint: 1.1°C (34°F) [RH = 96%]
Pressure (altimeter): 30.36 inches Hg (1028.2 mb)
Winds: calm
Visibility: 2.00 miles (3.22 km)
Ceiling: 200 feet AGL
Clouds: broken clouds at 200 feet AGL
Weather: BR  (mist)
Translated TAF for KOLM
Forecast for: KOLM (OLYMPIA , WA, US)
TAF Text: KOLM 290530Z 2906/3006 00000KT P6SM BCFG BKN140
Forecast period: 0600 to 0900 UTC 29 January 2015
Forecast type: FROM: standard forecast or significant change
Winds: calm
Visibility: 6 or more miles (10+ km)
Ceiling: 14000 feet AGL
Clouds: broken clouds at 14000 feet AGL
Weather: BCFG  (patches of fog)
TAF Text: TEMPO 2906/2909 1/2SM BCFG BKN001 BKN140
Forecast period: 0600 to 0900 UTC 29 January 2015
Forecast type: TEMPORARY: The following changes expected for less than half the time period
Visibility: 0.50 miles (0.80 km)
Ceiling: 100 feet AGL
Clouds: broken clouds at 100 feet AGL
broken clouds at 14000 feet AGL
Weather: BCFG  (patches of fog)
TAF Text: FM290900 00000KT P6SM BCFG BKN050 BKN100
Forecast period: 0900 to 1400 UTC 29 January 2015
Forecast type: FROM: standard forecast or significant change
Winds: calm
Visibility: 6 or more miles (10+ km)
Ceiling: 5000 feet AGL
Clouds: broken clouds at 5000 feet AGL
broken clouds at 10000 feet AGL
Weather: BCFG  (patches of fog)
TAF Text: TEMPO 2909/2913 1SM BR
Forecast period: 0900 to 1300 UTC 29 January 2015
Forecast type: TEMPORARY: The following changes expected for less than half the time period
Visibility: 1.00 miles (1.61 km)
Weather: BR  (mist)
TAF Text: FM291400 00000KT P6SM SCT050 BKN100
Forecast period: 1400 to 1900 UTC 29 January 2015
Forecast type: FROM: standard forecast or significant change
Winds: calm
Visibility: 6 or more miles (10+ km)
Ceiling: 10000 feet AGL
Clouds: scattered clouds at 5000 feet AGL
broken clouds at 10000 feet AGL
Weather: no significant weather forecast for this period
TAF Text: FM291900 03003KT P6SM SCT050 SCT150
Forecast period: 1900 UTC 29 January 2015 to 0600 UTC 30 January 2015
Forecast type: FROM: standard forecast or significant change
Winds: from the NNE (30 degrees) at 3 MPH (3 knots; 1.6 m/s)
Visibility: 6 or more miles (10+ km)
Clouds: scattered clouds at 5000 feet AGL
scattered clouds at 15000 feet AGL
Weather: no significant weather forecast for this period

Find All Airport Services Find A Hotel Find A Rental Car Find A Golf Course Find A Restaurant $100 Hamburger



FBO's on the Field
FBO Company Facility Photos Services Transportation Aviation Fuel Prices: Prices include tax
Catering Weather Repair Courtesy Rental Type 100LL JetA JetA+ MOGAS 8087
 
Glacier Jet Center

Glacier Jet Center logo
Currently rated 3.6 by 1 person
FS:
Last Updated: Jan-20
Login to update fuel prices
SS:
Contact Glacier Jet CenterMore FBO Information
 
Jorgensen Air Service

Jorgensen Air Service logo
Currently rated 4.7 by 3 people
FS:
Last Updated: Jan-28
Login to update fuel prices
SS:
Contact Jorgensen Air ServiceMore FBO Information
 
Add another FBO Facility Photos Catering Weather Repair Courtesy Rental Type 100LL JetA JetA+ MOGAS 8087
Services Transportation Aviation Fuel Prices: Prices include tax


model-print
model-print
model-print
model-print